Time;durP1;ratioP1;P1;durP2;ratioP2;P2;SDS_P1;SDS_P2;PMS_P1;PMS_P2;Temp;Humidity;BMP_temperature;BMP_pressure;BME280_temperature;BME280_humidity;BME280_pressure;Samples;Min_cycle;Max_cycle;Signal;HPM_P1;HPM_P2
2022/05/20 00:01:12;;;;;;;7.20;5.20;;;;;;;;;;5004723;28;20632;-66
2022/05/20 00:03:40;;;;;;;6.17;5.47;;;;;;;;;;5009789;28;20191;-66
2022/05/20 00:06:07;;;;;;;6.17;5.57;;;;;;;;;;5010412;28;20207;-66
2022/05/20 00:08:34;;;;;;;5.70;5.20;;;;;;;;;;5006661;28;20203;-65
2022/05/20 00:11:01;;;;;;;6.10;5.50;;;;;;;;;;5010571;28;20262;-66
2022/05/20 00:13:29;;;;;;;7.23;5.67;;;;;;;;;;5007503;28;20281;-66
2022/05/20 00:15:56;;;;;;;6.67;6.00;;;;;;;;;;5010451;28;20196;-66
2022/05/20 00:18:24;;;;;;;6.00;5.40;;;;;;;;;;5009565;28;20259;-65
2022/05/20 00:20:51;;;;;;;6.33;5.73;;;;;;;;;;5009339;28;20246;-66
2022/05/20 00:23:18;;;;;;;7.83;5.60;;;;;;;;;;5009893;28;20184;-66
2022/05/20 00:25:46;;;;;;;6.10;5.37;;;;;;;;;;5007736;28;20775;-66
2022/05/20 00:28:16;;;;;;;6.53;5.47;;;;;;;;;;5009748;28;20210;-66
2022/05/20 00:30:43;;;;;;;6.20;5.60;;;;;;;;;;5007148;28;20839;-66
2022/05/20 00:33:10;;;;;;;6.20;5.60;;;;;;;;;;5009618;28;20229;-66
2022/05/20 00:35:38;;;;;;;5.87;5.10;;;;;;;;;;5008736;28;20246;-66
2022/05/20 00:38:05;;;;;;;5.47;4.97;;;;;;;;;;5007754;28;20235;-66
2022/05/20 00:40:32;;;;;;;5.27;4.77;;;;;;;;;;5007112;28;20265;-66
2022/05/20 00:43:10;;;;;;;7.50;5.47;;;;;;;;;;5010213;28;20549;-66
2022/05/20 00:45:37;;;;;;;5.50;5.00;;;;;;;;;;5009566;28;20219;-66
2022/05/20 00:48:05;;;;;;;5.67;5.07;;;;;;;;;;5009152;28;20215;-66
2022/05/20 00:50:33;;;;;;;4.70;4.20;;;;;;;;;;5004765;28;20223;-65
2022/05/20 00:53:00;;;;;;;4.60;4.20;;;;;;;;;;5008802;28;20603;-65
2022/05/20 00:55:28;;;;;;;4.30;3.90;;;;;;;;;;5008970;28;20236;-66
2022/05/20 00:58:00;;;;;;;4.77;4.37;;;;;;;;;;5009531;28;20744;-65
2022/05/20 01:00:28;;;;;;;4.53;4.13;;;;;;;;;;5004335;28;20208;-66
2022/05/20 01:02:59;;;;;;;4.23;3.90;;;;;;;;;;5009226;28;20212;-66
2022/05/20 01:05:26;;;;;;;6.30;4.10;;;;;;;;;;5009273;28;20601;-66
2022/05/20 01:07:54;;;;;;;4.87;4.17;;;;;;;;;;5009333;28;20210;-66
2022/05/20 01:10:21;;;;;;;4.27;3.87;;;;;;;;;;5008977;28;20254;-65
2022/05/20 01:12:50;;;;;;;5.87;3.70;;;;;;;;;;5005542;28;20227;-65
2022/05/20 01:15:17;;;;;;;4.40;4.00;;;;;;;;;;5009169;28;20868;-66
2022/05/20 01:17:45;;;;;;;4.13;3.83;;;;;;;;;;5008062;28;20794;-66
2022/05/20 01:20:15;;;;;;;5.37;4.20;;;;;;;;;;5008306;28;20218;-65
2022/05/20 01:22:54;;;;;;;4.80;4.30;;;;;;;;;;5006428;28;20254;-66
2022/05/20 01:25:22;;;;;;;7.17;4.13;;;;;;;;;;5006661;28;20613;-66
2022/05/20 01:27:49;;;;;;;4.50;4.10;;;;;;;;;;5007238;28;20581;-66
2022/05/20 01:30:18;;;;;;;5.70;4.20;;;;;;;;;;5009077;28;20254;-66
2022/05/20 01:32:45;;;;;;;5.73;4.87;;;;;;;;;;5006598;28;20204;-66
2022/05/20 01:35:19;;;;;;;4.63;4.23;;;;;;;;;;5008763;28;20282;-66
2022/05/20 01:37:46;;;;;;;4.87;4.20;;;;;;;;;;5006505;28;20278;-66
2022/05/20 01:40:14;;;;;;;5.47;4.40;;;;;;;;;;5008943;28;20196;-66
2022/05/20 01:42:47;;;;;;;4.50;4.10;;;;;;;;;;5005885;28;20216;-66
2022/05/20 01:45:22;;;;;;;4.87;4.47;;;;;;;;;;5006725;28;20227;-66
2022/05/20 01:48:05;;;;;;;6.03;4.93;;;;;;;;;;5002395;28;20274;-67
2022/05/20 01:50:37;;;;;;;6.77;5.10;;;;;;;;;;5000523;28;20212;-67
2022/05/20 01:53:23;;;;;;;5.30;4.77;;;;;;;;;;5008473;28;20617;-66
2022/05/20 01:56:08;;;;;;;5.33;4.83;;;;;;;;;;5008138;28;20235;-65
2022/05/20 01:58:40;;;;;;;5.10;4.70;;;;;;;;;;5001121;28;20227;-65
2022/05/20 02:01:09;;;;;;;5.60;5.10;;;;;;;;;;5006558;28;20207;-65
2022/05/20 02:03:39;;;;;;;5.00;4.60;;;;;;;;;;5008092;28;20196;-66
2022/05/20 02:06:18;;;;;;;5.43;4.93;;;;;;;;;;5008343;28;20207;-65
2022/05/20 02:08:52;;;;;;;5.00;4.50;;;;;;;;;;5005671;28;20203;-65
2022/05/20 02:11:38;;;;;;;4.67;4.10;;;;;;;;;;5012846;28;20569;-65
2022/05/20 02:14:11;;;;;;;4.73;4.33;;;;;;;;;;4999634;28;20215;-65
2022/05/20 02:16:41;;;;;;;4.27;3.87;;;;;;;;;;5004084;28;20212;-65
2022/05/20 02:19:28;;;;;;;4.07;3.67;;;;;;;;;;5008497;28;20216;-65
2022/05/20 02:21:56;;;;;;;4.97;4.03;;;;;;;;;;5007835;28;20537;-65
2022/05/20 02:24:24;;;;;;;4.40;4.00;;;;;;;;;;5007216;28;20324;-65
2022/05/20 02:26:54;;;;;;;3.97;3.60;;;;;;;;;;5006995;28;20208;-65
2022/05/20 02:29:24;;;;;;;4.13;3.73;;;;;;;;;;5005144;28;20261;-69
2022/05/20 02:31:54;;;;;;;4.40;3.87;;;;;;;;;;5003057;28;20200;-64
2022/05/20 02:34:22;;;;;;;7.03;3.80;;;;;;;;;;5007073;28;20541;-65
2022/05/20 02:36:49;;;;;;;5.77;4.10;;;;;;;;;;5003110;28;20226;-65
2022/05/20 02:39:16;;;;;;;4.50;4.10;;;;;;;;;;5002945;28;20211;-65
2022/05/20 02:41:44;;;;;;;3.83;3.53;;;;;;;;;;5007751;28;20626;-65
2022/05/20 02:44:12;;;;;;;4.87;4.40;;;;;;;;;;5006681;28;20192;-65
2022/05/20 02:46:40;;;;;;;5.97;4.37;;;;;;;;;;5004979;28;20556;-65
2022/05/20 02:49:07;;;;;;;4.63;4.20;;;;;;;;;;5005395;28;20352;-65
2022/05/20 02:51:35;;;;;;;5.23;4.73;;;;;;;;;;5007733;28;20603;-64
2022/05/20 02:54:02;;;;;;;5.43;4.93;;;;;;;;;;5007394;28;20593;-64
2022/05/20 02:56:29;;;;;;;5.23;4.83;;;;;;;;;;5004534;28;20309;-65
2022/05/20 03:04:28;;;;;;;6.03;4.70;;;;;;;;;;5006308;28;20200;-65
2022/05/20 03:06:55;;;;;;;5.10;4.27;;;;;;;;;;5006348;28;20203;-65
2022/05/20 03:09:23;;;;;;;4.80;4.40;;;;;;;;;;5006546;28;20584;-65
2022/05/20 03:11:51;;;;;;;5.07;4.57;;;;;;;;;;5007119;28;20204;-65
2022/05/20 03:14:19;;;;;;;5.37;4.30;;;;;;;;;;5004867;28;20251;-65
2022/05/20 03:16:47;;;;;;;4.83;4.43;;;;;;;;;;5004772;28;20265;-65
2022/05/20 03:19:15;;;;;;;4.83;4.30;;;;;;;;;;5000850;28;20219;-65
2022/05/20 03:21:42;;;;;;;4.97;4.57;;;;;;;;;;5006240;28;20264;-64
2022/05/20 03:24:10;;;;;;;4.80;4.23;;;;;;;;;;5006781;28;20192;-65
2022/05/20 03:26:37;;;;;;;4.93;4.50;;;;;;;;;;5002787;28;20207;-65
2022/05/20 03:29:05;;;;;;;5.17;4.47;;;;;;;;;;5007306;28;20217;-64
2022/05/20 03:31:33;;;;;;;6.27;4.03;;;;;;;;;;5007194;28;20206;-64
2022/05/20 03:34:05;;;;;;;4.60;4.17;;;;;;;;;;5006328;28;20617;-64
2022/05/20 03:36:36;;;;;;;4.40;4.03;;;;;;;;;;5001989;28;20668;-64
2022/05/20 03:39:04;;;;;;;4.90;4.10;;;;;;;;;;5010824;28;20227;-65
2022/05/20 03:41:31;;;;;;;5.30;4.10;;;;;;;;;;5010847;28;20187;-65
2022/05/20 03:44:02;;;;;;;4.90;4.10;;;;;;;;;;5010586;28;20191;-65
2022/05/20 03:46:30;;;;;;;4.47;4.00;;;;;;;;;;5009292;28;20202;-65
2022/05/20 03:48:58;;;;;;;4.00;3.60;;;;;;;;;;5008073;28;20220;-65
2022/05/20 03:51:25;;;;;;;3.90;3.60;;;;;;;;;;5010940;28;20245;-65
2022/05/20 03:53:52;;;;;;;4.40;3.47;;;;;;;;;;5010638;28;20235;-65
2022/05/20 03:56:19;;;;;;;3.30;3.10;;;;;;;;;;5010615;28;20286;-65
2022/05/20 03:58:47;;;;;;;3.40;3.10;;;;;;;;;;5007727;28;20219;-65
2022/05/20 04:04:00;;;;;;;3.30;3.00;;;;;;;;;;5008812;28;20214;-65
2022/05/20 04:06:28;;;;;;;3.53;2.80;;;;;;;;;;5001494;28;20184;-65
2022/05/20 04:08:59;;;;;;;3.43;2.93;;;;;;;;;;5009278;28;20204;-65
2022/05/20 04:11:31;;;;;;;2.87;2.67;;;;;;;;;;5004680;28;20263;-65
2022/05/20 04:14:03;;;;;;;3.20;2.90;;;;;;;;;;5006543;28;20266;-65
2022/05/20 04:16:33;;;;;;;2.70;2.47;;;;;;;;;;5006329;28;20622;-65
2022/05/20 04:19:02;;;;;;;2.97;2.77;;;;;;;;;;5009705;28;20223;-65
2022/05/20 04:21:32;;;;;;;2.80;2.60;;;;;;;;;;5009235;28;20214;-65
2022/05/20 04:24:06;;;;;;;2.90;2.70;;;;;;;;;;5009993;28;20203;-65
2022/05/20 04:26:34;;;;;;;3.53;2.67;;;;;;;;;;5005125;28;20238;-65
2022/05/20 04:29:06;;;;;;;3.00;2.40;;;;;;;;;;5008644;28;20196;-65
2022/05/20 04:31:37;;;;;;;2.87;2.67;;;;;;;;;;5008987;28;20191;-65
2022/05/20 04:34:09;;;;;;;2.87;2.67;;;;;;;;;;5009652;28;20198;-64
2022/05/20 04:36:45;;;;;;;3.40;3.00;;;;;;;;;;5005095;28;20683;-65
2022/05/20 04:39:20;;;;;;;2.80;2.60;;;;;;;;;;5009310;28;20265;-65
2022/05/20 04:47:27;;;;;;;2.90;2.70;;;;;;;;;;5008447;28;20274;-65
2022/05/20 04:50:01;;;;;;;2.90;2.70;;;;;;;;;;4999966;28;20269;-65
2022/05/20 04:52:30;;;;;;;3.37;3.07;;;;;;;;;;5001047;28;20420;-66
2022/05/20 04:55:01;;;;;;;3.43;3.10;;;;;;;;;;5009296;28;20223;-66
2022/05/20 04:57:50;;;;;;;3.37;3.07;;;;;;;;;;5009557;28;20587;-65
2022/05/20 05:00:24;;;;;;;3.40;3.20;;;;;;;;;;5009424;28;20210;-65
2022/05/20 05:02:55;;;;;;;6.97;3.50;;;;;;;;;;5005585;28;20226;-65
2022/05/20 05:05:27;;;;;;;4.60;3.70;;;;;;;;;;5009902;28;20242;-65
2022/05/20 05:07:59;;;;;;;4.87;4.13;;;;;;;;;;5008153;28;20203;-66
2022/05/20 05:10:30;;;;;;;8.67;4.37;;;;;;;;;;5007737;28;20289;-65
2022/05/20 05:12:59;;;;;;;8.23;4.50;;;;;;;;;;5000041;28;20247;-65
2022/05/20 05:15:30;;;;;;;6.27;5.00;;;;;;;;;;4997691;28;20192;-65
2022/05/20 05:18:14;;;;;;;7.93;4.90;;;;;;;;;;5003722;28;20203;-65
2022/05/20 05:20:50;;;;;;;5.47;4.80;;;;;;;;;;5006653;28;20216;-65
2022/05/20 05:23:20;;;;;;;27.60;10.83;;;;;;;;;;5007430;28;20257;-65
2022/05/20 05:25:48;;;;;;;43.63;17.27;;;;;;;;;;5005497;28;20657;-65
2022/05/20 05:28:20;;;;;;;26.93;13.43;;;;;;;;;;5007707;28;20204;-65
2022/05/20 05:30:49;;;;;;;22.70;11.37;;;;;;;;;;5006821;28;20799;-64
2022/05/20 05:33:21;;;;;;;15.27;10.07;;;;;;;;;;5008253;28;20192;-64
2022/05/20 05:35:51;;;;;;;15.37;10.30;;;;;;;;;;5007967;28;20195;-64
2022/05/20 05:38:23;;;;;;;11.30;8.30;;;;;;;;;;5006064;28;20211;-64
2022/05/20 05:40:54;;;;;;;9.70;8.10;;;;;;;;;;5008205;28;20226;-65
2022/05/20 05:43:24;;;;;;;11.03;7.17;;;;;;;;;;5008006;28;20225;-65
2022/05/20 05:45:54;;;;;;;9.93;7.87;;;;;;;;;;5002077;28;20239;-66
2022/05/20 05:48:22;;;;;;;9.93;8.33;;;;;;;;;;5004020;28;20215;-66
2022/05/20 05:50:55;;;;;;;9.40;7.80;;;;;;;;;;5003773;28;20223;-65
2022/05/20 05:53:28;;;;;;;23.23;13.63;;;;;;;;;;5007193;28;20207;-65
2022/05/20 05:55:59;;;;;;;33.60;13.87;;;;;;;;;;5003607;28;20246;-66
2022/05/20 05:58:27;;;;;;;32.13;12.70;;;;;;;;;;5005576;28;20317;-66
2022/05/20 06:00:55;;;;;;;19.87;10.97;;;;;;;;;;5003936;28;20380;-67
2022/05/20 06:03:27;;;;;;;22.37;9.90;;;;;;;;;;4994649;28;20204;-69
2022/05/20 06:05:58;;;;;;;17.20;8.80;;;;;;;;;;5004482;28;20545;-68
2022/05/20 06:08:30;;;;;;;13.83;8.00;;;;;;;;;;5004084;28;20202;-66
2022/05/20 06:11:02;;;;;;;10.13;7.23;;;;;;;;;;5008243;28;20546;-70
2022/05/20 06:13:31;;;;;;;10.97;6.40;;;;;;;;;;5004723;28;20225;-66
2022/05/20 06:16:00;;;;;;;10.67;6.80;;;;;;;;;;5003236;28;20282;-69
2022/05/20 06:18:33;;;;;;;8.27;6.70;;;;;;;;;;5004636;28;20203;-68
2022/05/20 06:21:04;;;;;;;12.43;6.73;;;;;;;;;;5007727;28;20234;-67
2022/05/20 06:23:37;;;;;;;6.70;6.00;;;;;;;;;;5006683;28;20280;-66
2022/05/20 06:26:07;;;;;;;8.07;6.03;;;;;;;;;;4999925;28;20215;-69
2022/05/20 06:28:43;;;;;;;8.73;6.63;;;;;;;;;;4998693;28;20258;-70
2022/05/20 06:31:11;;;;;;;7.00;5.97;;;;;;;;;;5005495;28;20218;-66
2022/05/20 06:33:39;;;;;;;6.87;6.07;;;;;;;;;;5006408;28;20195;-66
2022/05/20 06:41:38;;;;;;;8.43;6.77;;;;;;;;;;5007340;28;20206;-67
2022/05/20 06:44:05;;;;;;;8.50;7.73;;;;;;;;;;5006987;28;20578;-67
2022/05/20 06:46:33;;;;;;;9.73;7.77;;;;;;;;;;5004498;28;20673;-65
2022/05/20 06:49:01;;;;;;;8.27;7.40;;;;;;;;;;5003874;28;20231;-65
2022/05/20 06:51:33;;;;;;;9.60;7.50;;;;;;;;;;4971203;28;20803;-67
2022/05/20 06:54:01;;;;;;;11.27;8.40;;;;;;;;;;5003188;28;20208;-67
2022/05/20 06:56:29;;;;;;;10.30;6.27;;;;;;;;;;4998086;28;20234;-66
2022/05/20 06:58:56;;;;;;;9.97;6.80;;;;;;;;;;5009118;28;20732;-67
2022/05/20 07:01:24;;;;;;;10.57;6.53;;;;;;;;;;5001462;28;20200;-69
2022/05/20 07:03:51;;;;;;;10.47;5.73;;;;;;;;;;5005777;28;20196;-68
2022/05/20 07:06:19;;;;;;;9.53;5.70;;;;;;;;;;5004722;28;20192;-65
2022/05/20 07:08:50;;;;;;;9.87;5.87;;;;;;;;;;5006083;28;20199;-67
2022/05/20 07:11:18;;;;;;;9.80;5.67;;;;;;;;;;5005567;28;20191;-64
2022/05/20 07:13:46;;;;;;;9.23;5.90;;;;;;;;;;5005796;28;20215;-66
2022/05/20 07:16:17;;;;;;;9.07;5.93;;;;;;;;;;5009493;28;20257;-67
2022/05/20 07:18:44;;;;;;;8.13;5.50;;;;;;;;;;5007923;28;20656;-67
2022/05/20 07:21:11;;;;;;;7.60;5.23;;;;;;;;;;5019566;28;20216;-69
2022/05/20 07:23:39;;;;;;;9.07;5.80;;;;;;;;;;5012535;28;20204;-68
2022/05/20 07:26:08;;;;;;;10.13;5.30;;;;;;;;;;5008630;28;20219;-69
2022/05/20 07:28:38;;;;;;;9.30;5.60;;;;;;;;;;5008849;28;20657;-69
2022/05/20 07:31:09;;;;;;;7.47;5.57;;;;;;;;;;5011032;28;20216;-69
2022/05/20 07:33:39;;;;;;;6.57;5.00;;;;;;;;;;5008307;28;20198;-68
2022/05/20 07:36:10;;;;;;;7.37;5.50;;;;;;;;;;5026252;28;20207;-69
2022/05/20 07:38:40;;;;;;;7.77;5.23;;;;;;;;;;5004317;28;20298;-68
2022/05/20 07:41:08;;;;;;;5.17;4.17;;;;;;;;;;5010772;28;20251;-67
2022/05/20 07:43:38;;;;;;;7.80;4.80;;;;;;;;;;5010219;28;20243;-66
2022/05/20 07:46:11;;;;;;;8.30;5.00;;;;;;;;;;5010348;28;20203;-66
2022/05/20 07:48:42;;;;;;;5.00;4.37;;;;;;;;;;5003403;28;20191;-69
2022/05/20 07:51:16;;;;;;;6.97;4.83;;;;;;;;;;5009399;28;20278;-70
2022/05/20 07:54:01;;;;;;;9.27;5.23;;;;;;;;;;5010296;28;20196;-71
2022/05/20 07:56:42;;;;;;;7.10;4.80;;;;;;;;;;5006171;28;20235;-68
2022/05/20 07:59:18;;;;;;;6.83;4.67;;;;;;;;;;4993571;28;20203;-65
2022/05/20 08:01:50;;;;;;;6.93;5.13;;;;;;;;;;5002917;28;20204;-68
2022/05/20 08:07:13;;;;;;;6.23;5.23;;;;;;;;;;5004692;28;20199;-66
2022/05/20 08:09:40;;;;;;;7.80;5.40;;;;;;;;;;5009585;28;20208;-67
2022/05/20 08:12:07;;;;;;;7.13;5.17;;;;;;;;;;5009210;28;20203;-72
2022/05/20 08:14:43;;;;;;;6.47;5.13;;;;;;;;;;5003813;28;20227;-71
2022/05/20 08:17:12;;;;;;;6.17;5.30;;;;;;;;;;5009622;28;20522;-67
2022/05/20 08:19:44;;;;;;;7.30;5.00;;;;;;;;;;5010618;28;20216;-67
2022/05/20 08:22:22;;;;;;;8.40;5.80;;;;;;;;;;5009446;28;20192;-66
2022/05/20 08:24:52;;;;;;;6.27;4.73;;;;;;;;;;5001466;28;22289;-66
2022/05/20 08:27:24;;;;;;;5.10;4.60;;;;;;;;;;5041139;28;20235;-68
2022/05/20 08:29:55;;;;;;;5.00;4.50;;;;;;;;;;5010453;28;20528;-68
2022/05/20 08:32:23;;;;;;;7.37;4.53;;;;;;;;;;5009928;28;20207;-67
2022/05/20 08:34:50;;;;;;;5.77;3.90;;;;;;;;;;5007646;28;20211;-68
2022/05/20 08:37:21;;;;;;;5.87;4.20;;;;;;;;;;5038258;28;20203;-67
2022/05/20 08:39:49;;;;;;;5.43;4.70;;;;;;;;;;5008937;28;20222;-67
2022/05/20 08:42:26;;;;;;;5.10;4.60;;;;;;;;;;5008271;28;20277;-68
2022/05/20 08:44:57;;;;;;;7.27;5.10;;;;;;;;;;5005868;28;20218;-65
2022/05/20 08:47:39;;;;;;;10.90;5.27;;;;;;;;;;5009296;28;20199;-65
2022/05/20 08:50:07;;;;;;;14.10;5.30;;;;;;;;;;5005466;28;20211;-66
2022/05/20 08:52:35;;;;;;;21.70;5.40;;;;;;;;;;5000007;28;20191;-66
2022/05/20 08:55:02;;;;;;;9.70;4.70;;;;;;;;;;4992201;28;20218;-66
2022/05/20 08:57:39;;;;;;;16.43;4.93;;;;;;;;;;5007246;28;20297;-65
2022/05/20 09:00:09;;;;;;;12.73;4.83;;;;;;;;;;5007336;28;20223;-64
2022/05/20 09:02:37;;;;;;;10.60;4.80;;;;;;;;;;5001917;28;20548;-64
2022/05/20 09:05:34;;;;;;;7.03;4.30;;;;;;;;;;5007139;28;20199;-64
2022/05/20 09:08:03;;;;;;;11.80;4.50;;;;;;;;;;5005076;28;20607;-66
2022/05/20 09:10:33;;;;;;;14.03;4.97;;;;;;;;;;5006672;28;20196;-68
2022/05/20 09:16:19;;;;;;;10.03;4.83;;;;;;;;;;4998928;28;20187;-66
2022/05/20 09:19:05;;;;;;;8.83;4.83;;;;;;;;;;5005368;28;20204;-66
2022/05/20 09:21:38;;;;;;;6.73;4.53;;;;;;;;;;5007926;28;20207;-68
2022/05/20 09:24:07;;;;;;;6.03;4.27;;;;;;;;;;4998037;28;20661;-67
2022/05/20 09:26:36;;;;;;;6.70;3.97;;;;;;;;;;5000954;28;20212;-67
2022/05/20 09:29:11;;;;;;;9.10;4.37;;;;;;;;;;5007894;28;20573;-67
2022/05/20 09:32:00;;;;;;;11.03;4.40;;;;;;;;;;5012139;28;20199;-70
2022/05/20 09:34:28;;;;;;;6.90;4.67;;;;;;;;;;5004147;28;20653;-68
2022/05/20 09:37:05;;;;;;;5.80;5.07;;;;;;;;;;5003101;28;20640;-67
2022/05/20 09:39:32;;;;;;;9.90;4.80;;;;;;;;;;5007062;28;20246;-69
2022/05/20 09:42:07;;;;;;;7.33;4.73;;;;;;;;;;5008320;28;20216;-71
2022/05/20 09:44:38;;;;;;;8.17;4.23;;;;;;;;;;5004168;28;20187;-68
2022/05/20 09:47:31;;;;;;;8.70;5.30;;;;;;;;;;5007850;28;20738;-69
2022/05/20 09:50:02;;;;;;;8.67;5.00;;;;;;;;;;4997044;28;20219;-70
2022/05/20 09:52:32;;;;;;;11.13;6.00;;;;;;;;;;5016564;28;20207;-66
2022/05/20 09:55:05;;;;;;;8.57;5.50;;;;;;;;;;5006479;28;20231;-71
2022/05/20 09:57:36;;;;;;;15.23;5.47;;;;;;;;;;5006702;28;20235;-69
2022/05/20 10:00:13;;;;;;;13.67;6.23;;;;;;;;;;5006102;28;20351;-69
2022/05/20 10:02:43;;;;;;;13.60;6.03;;;;;;;;;;4995505;28;20204;-68
2022/05/20 10:05:24;;;;;;;7.97;6.30;;;;;;;;;;5008104;28;20200;-69
2022/05/20 10:07:56;;;;;;;7.00;5.80;;;;;;;;;;5007299;28;20207;-69
2022/05/20 10:10:23;;;;;;;10.67;6.40;;;;;;;;;;5005019;28;20196;-68
2022/05/20 10:12:51;;;;;;;9.53;7.17;;;;;;;;;;5000845;28;24743;-69
2022/05/20 10:15:25;;;;;;;13.80;7.33;;;;;;;;;;5004078;28;20200;-69
2022/05/20 10:18:24;;;;;;;12.27;8.13;;;;;;;;;;5007887;28;20214;-69
2022/05/20 10:21:15;;;;;;;10.30;9.20;;;;;;;;;;5000850;28;20238;-69
2022/05/20 10:23:56;;;;;;;9.77;8.77;;;;;;;;;;4994157;28;20200;-69
2022/05/20 10:26:33;;;;;;;9.83;8.47;;;;;;;;;;5004094;28;20226;-69
2022/05/20 10:35:09;;;;;;;13.10;9.70;;;;;;;;;;5002750;28;20215;-70
2022/05/20 10:37:47;;;;;;;13.77;10.60;;;;;;;;;;5003479;28;20219;-71
2022/05/20 10:40:45;;;;;;;11.10;9.70;;;;;;;;;;5008685;28;20219;-70
2022/05/20 10:48:34;;;;;;;13.90;10.97;;;;;;;;;;5004016;28;20234;-71
2022/05/20 10:49:42;;;;;;;11.10;9.57;;;;;;;;;;4997556;28;20219;-69
2022/05/20 10:52:34;;;;;;;12.57;10.33;;;;;;;;;;4998267;28;20286;-70
2022/05/20 10:55:22;;;;;;;12.00;10.37;;;;;;;;;;5007936;28;20208;-70
2022/05/20 10:57:57;;;;;;;10.17;8.07;;;;;;;;;;4997484;28;20250;-69
2022/05/20 11:00:28;;;;;;;13.00;9.10;;;;;;;;;;5001114;28;20219;-69
2022/05/20 11:03:14;;;;;;;15.97;11.03;;;;;;;;;;5002179;28;20223;-69
2022/05/20 11:05:58;;;;;;;17.07;11.37;;;;;;;;;;5000927;28;20204;-69
2022/05/20 11:08:44;;;;;;;12.77;10.50;;;;;;;;;;5005226;28;20214;-68
2022/05/20 11:11:40;;;;;;;20.03;8.97;;;;;;;;;;5007512;28;20208;-67
2022/05/20 11:14:20;;;;;;;11.17;8.57;;;;;;;;;;5003241;28;20216;-68
2022/05/20 11:17:02;;;;;;;13.43;10.67;;;;;;;;;;5001256;28;20183;-65
2022/05/20 11:19:38;;;;;;;12.70;10.03;;;;;;;;;;5005783;28;20279;-67
2022/05/20 11:22:11;;;;;;;12.73;9.87;;;;;;;;;;5006026;28;20413;-68
2022/05/20 11:24:53;;;;;;;14.03;10.97;;;;;;;;;;4996644;28;20200;-67
2022/05/20 11:27:40;;;;;;;14.13;11.43;;;;;;;;;;5004987;28;20678;-68
2022/05/20 11:30:21;;;;;;;14.33;10.90;;;;;;;;;;5006312;28;20686;-68
2022/05/20 11:32:58;;;;;;;12.30;10.90;;;;;;;;;;5000263;28;20269;-68
2022/05/20 11:35:59;;;;;;;14.60;11.47;;;;;;;;;;5004570;28;20211;-68
2022/05/20 11:38:40;;;;;;;14.90;11.57;;;;;;;;;;4998366;28;20238;-68
2022/05/20 11:41:28;;;;;;;15.83;13.00;;;;;;;;;;5007447;28;20215;-68
2022/05/20 11:44:04;;;;;;;18.03;13.47;;;;;;;;;;4995803;28;20196;-68
2022/05/20 11:46:50;;;;;;;15.87;13.67;;;;;;;;;;5003343;28;20214;-66
2022/05/20 11:49:29;;;;;;;16.67;14.57;;;;;;;;;;5001935;28;20591;-66
2022/05/20 11:52:17;;;;;;;17.10;14.67;;;;;;;;;;4996961;28;20431;-67
2022/05/20 11:54:58;;;;;;;18.20;14.17;;;;;;;;;;4999828;28;20196;-68
2022/05/20 11:57:39;;;;;;;18.37;14.37;;;;;;;;;;4996484;28;20255;-66
2022/05/20 12:00:13;;;;;;;17.20;13.60;;;;;;;;;;5007282;28;20203;-68
2022/05/20 12:03:04;;;;;;;18.47;13.93;;;;;;;;;;5000809;28;20266;-66
2022/05/20 12:05:40;;;;;;;18.13;14.20;;;;;;;;;;5004720;28;20199;-68
2022/05/20 12:08:10;;;;;;;19.33;14.13;;;;;;;;;;5010230;28;20203;-67
2022/05/20 12:10:46;;;;;;;15.80;13.37;;;;;;;;;;5008494;28;20214;-68
2022/05/20 12:13:22;;;;;;;18.37;14.37;;;;;;;;;;4994685;28;20227;-68
2022/05/20 12:16:11;;;;;;;17.20;13.57;;;;;;;;;;5009578;28;20203;-68
2022/05/20 12:25:27;;;;;;;18.23;15.47;;;;;;;;;;5007617;28;20223;-65
2022/05/20 12:28:09;;;;;;;19.67;15.23;;;;;;;;;;5007578;28;20631;-65
2022/05/20 12:30:48;;;;;;;16.30;14.60;;;;;;;;;;5001440;28;20208;-63
2022/05/20 12:33:27;;;;;;;15.57;12.63;;;;;;;;;;5009753;28;20524;-65
2022/05/20 12:36:20;;;;;;;12.97;11.60;;;;;;;;;;5008032;28;20196;-66
2022/05/20 12:38:51;;;;;;;13.93;10.67;;;;;;;;;;4998732;28;20242;-66
2022/05/20 12:41:21;;;;;;;14.63;11.30;;;;;;;;;;5011045;28;20409;-68
2022/05/20 12:43:53;;;;;;;12.40;9.70;;;;;;;;;;5002246;28;20196;-64
2022/05/20 12:46:32;;;;;;;9.83;8.80;;;;;;;;;;5003076;28;20196;-64
2022/05/20 12:49:00;;;;;;;11.37;8.50;;;;;;;;;;5004539;28;20215;-64
2022/05/20 12:51:27;;;;;;;13.73;8.43;;;;;;;;;;5015887;28;20200;-64
2022/05/20 12:53:55;;;;;;;11.93;8.07;;;;;;;;;;5001756;28;20258;-64
2022/05/20 12:56:28;;;;;;;10.63;8.03;;;;;;;;;;5008978;28;20231;-62
2022/05/20 12:59:14;;;;;;;9.80;8.20;;;;;;;;;;5003188;28;20210;-63
2022/05/20 13:01:45;;;;;;;8.43;7.40;;;;;;;;;;5003262;28;20249;-65
2022/05/20 13:04:15;;;;;;;9.13;7.23;;;;;;;;;;5000049;28;20208;-65
2022/05/20 13:06:47;;;;;;;8.20;7.27;;;;;;;;;;5005809;28;20299;-65
2022/05/20 13:09:22;;;;;;;9.37;7.33;;;;;;;;;;5002070;28;20207;-64
2022/05/20 13:11:53;;;;;;;7.97;7.13;;;;;;;;;;5006906;28;20192;-65
2022/05/20 13:14:35;;;;;;;10.70;7.33;;;;;;;;;;5000407;28;20624;-65
2022/05/20 13:17:07;;;;;;;8.97;7.10;;;;;;;;;;5005680;28;20853;-65
2022/05/20 13:19:48;;;;;;;8.60;7.70;;;;;;;;;;5005238;28;20239;-65
2022/05/20 13:22:25;;;;;;;9.07;7.80;;;;;;;;;;5005827;28;20235;-65
2022/05/20 13:25:00;;;;;;;11.33;8.63;;;;;;;;;;4992621;28;20219;-64
2022/05/20 13:27:29;;;;;;;10.10;8.10;;;;;;;;;;5005982;28;20222;-65
2022/05/20 13:30:20;;;;;;;9.50;8.60;;;;;;;;;;5002648;28;20195;-65
2022/05/20 13:32:50;;;;;;;8.73;7.80;;;;;;;;;;5004671;28;20196;-64
2022/05/20 13:35:18;;;;;;;8.90;7.87;;;;;;;;;;5003255;28;20212;-65
2022/05/20 13:37:55;;;;;;;8.47;7.63;;;;;;;;;;5002155;28;20200;-65
2022/05/20 13:40:41;;;;;;;9.10;7.97;;;;;;;;;;5007798;28;20199;-65
2022/05/20 13:43:16;;;;;;;8.03;7.10;;;;;;;;;;5006955;28;20196;-65
2022/05/20 13:49:16;;;;;;;9.60;7.60;;;;;;;;;;5020497;28;20376;-65
2022/05/20 13:52:13;;;;;;;8.60;7.63;;;;;;;;;;5001383;28;20239;-64
2022/05/20 13:54:45;;;;;;;8.30;7.50;;;;;;;;;;4998422;28;20219;-64
2022/05/20 13:57:20;;;;;;;9.10;7.77;;;;;;;;;;5006547;28;20273;-65
2022/05/20 13:59:56;;;;;;;10.23;7.60;;;;;;;;;;5003598;28;20210;-65
2022/05/20 14:02:38;;;;;;;8.53;7.60;;;;;;;;;;5006316;28;20235;-66
2022/05/20 14:05:16;;;;;;;8.50;7.70;;;;;;;;;;4994618;28;20192;-65
2022/05/20 14:07:47;;;;;;;8.43;7.27;;;;;;;;;;5007104;28;20215;-65
2022/05/20 14:10:34;;;;;;;7.53;6.80;;;;;;;;;;5000798;28;20183;-65
2022/05/20 14:13:04;;;;;;;7.00;6.30;;;;;;;;;;5003408;28;20731;-65
2022/05/20 14:15:41;;;;;;;7.03;5.77;;;;;;;;;;5003017;28;20258;-65
2022/05/20 14:18:23;;;;;;;5.83;5.23;;;;;;;;;;5007501;28;20206;-64
2022/05/20 14:20:55;;;;;;;5.90;5.40;;;;;;;;;;4998784;28;20277;-65
2022/05/20 14:23:24;;;;;;;5.53;5.03;;;;;;;;;;5004373;28;20254;-65
2022/05/20 14:26:03;;;;;;;5.27;4.77;;;;;;;;;;5000807;28;20282;-64
2022/05/20 14:28:45;;;;;;;4.70;4.30;;;;;;;;;;5000270;28;20219;-64
2022/05/20 14:31:18;;;;;;;4.70;4.30;;;;;;;;;;5006796;28;20205;-65
2022/05/20 14:33:47;;;;;;;4.47;4.07;;;;;;;;;;5006272;28;20200;-64
2022/05/20 14:36:14;;;;;;;4.20;3.40;;;;;;;;;;5006906;28;20261;-65
2022/05/20 14:38:47;;;;;;;4.03;3.63;;;;;;;;;;5002421;28;20223;-65
2022/05/20 14:41:30;;;;;;;4.47;3.57;;;;;;;;;;5005226;28;20221;-66
2022/05/20 14:44:01;;;;;;;3.43;3.13;;;;;;;;;;5001352;28;20218;-66
2022/05/20 14:49:25;;;;;;;3.73;3.13;;;;;;;;;;5002707;28;20207;-65
2022/05/20 14:51:59;;;;;;;3.33;3.03;;;;;;;;;;5004776;28;20212;-67
2022/05/20 14:54:42;;;;;;;3.00;2.70;;;;;;;;;;4996637;28;20414;-66
2022/05/20 14:57:24;;;;;;;3.50;3.20;;;;;;;;;;4976590;28;20239;-66
2022/05/20 15:00:11;;;;;;;3.43;3.13;;;;;;;;;;5000232;28;20200;-66
2022/05/20 15:02:39;;;;;;;2.90;2.70;;;;;;;;;;4995726;28;20247;-65
2022/05/20 15:05:10;;;;;;;2.90;2.70;;;;;;;;;;5004172;28;20660;-66
2022/05/20 15:07:40;;;;;;;3.63;2.50;;;;;;;;;;5002644;28;20199;-66
2022/05/20 15:10:09;;;;;;;3.67;2.70;;;;;;;;;;5003759;28;20279;-66
2022/05/20 15:12:42;;;;;;;3.10;2.80;;;;;;;;;;5001539;28;20207;-66
2022/05/20 15:15:14;;;;;;;3.07;2.53;;;;;;;;;;5004299;28;20216;-65
2022/05/20 15:18:04;;;;;;;3.63;2.90;;;;;;;;;;5000222;28;20314;-65
2022/05/20 15:20:38;;;;;;;3.00;2.67;;;;;;;;;;5002400;28;20192;-66
2022/05/20 15:23:36;;;;;;;2.90;2.60;;;;;;;;;;5006089;28;20608;-66
2022/05/20 15:26:08;;;;;;;2.83;2.50;;;;;;;;;;4998239;28;20212;-65
2022/05/20 15:28:54;;;;;;;3.23;2.80;;;;;;;;;;5001971;28;20293;-66
2022/05/20 15:37:14;;;;;;;2.67;2.37;;;;;;;;;;5001216;28;20832;-67
2022/05/20 15:39:55;;;;;;;4.53;2.30;;;;;;;;;;5008986;28;20199;-66
2022/05/20 15:42:27;;;;;;;2.80;2.33;;;;;;;;;;5003154;28;20229;-66
2022/05/20 15:45:01;;;;;;;2.63;2.40;;;;;;;;;;5000324;28;20207;-66
2022/05/20 15:47:33;;;;;;;3.43;3.13;;;;;;;;;;5003816;28;20191;-67
2022/05/20 15:50:07;;;;;;;3.17;2.87;;;;;;;;;;4997421;28;20293;-67
2022/05/20 15:52:40;;;;;;;3.30;3.00;;;;;;;;;;5005278;28;20250;-66
2022/05/20 15:55:19;;;;;;;3.67;3.20;;;;;;;;;;4996468;28;20206;-65
2022/05/20 15:57:46;;;;;;;4.00;3.70;;;;;;;;;;5005692;28;20255;-66
2022/05/20 16:00:15;;;;;;;3.87;3.50;;;;;;;;;;5001392;28;20243;-67
2022/05/20 16:02:42;;;;;;;4.27;3.73;;;;;;;;;;4996911;28;20220;-67
2022/05/20 16:05:22;;;;;;;3.33;3.03;;;;;;;;;;5008198;28;20649;-65
2022/05/20 16:07:52;;;;;;;3.60;3.30;;;;;;;;;;5008872;28;20195;-65